createdAt,value
2022-11-29T00:01:52.780Z,20.65
2022-11-29T00:04:55.823Z,20.85
2022-11-29T00:08:00.174Z,18.08
2022-11-29T00:11:07.034Z,17.80
2022-11-29T00:14:11.934Z,20.55
2022-11-29T00:17:14.905Z,19.83
2022-11-29T00:20:18.687Z,19.15
2022-11-29T00:23:23.029Z,19.63
2022-11-29T00:26:26.082Z,16.88
2022-11-29T00:29:31.415Z,18.92
2022-11-29T00:32:34.383Z,20.10
2022-11-29T00:35:37.470Z,18.25
2022-11-29T00:38:42.510Z,20.27
2022-11-29T00:41:46.538Z,18.77
2022-11-29T00:44:49.535Z,17.55
2022-11-29T00:47:52.468Z,26.10
2022-11-29T00:50:55.524Z,19.17
2022-11-29T00:53:59.906Z,18.42
2022-11-29T00:57:02.947Z,19.27
2022-11-29T01:00:07.471Z,15.90
2022-11-29T01:03:10.558Z,18.10
2022-11-29T01:06:16.478Z,16.55
2022-11-29T01:09:22.054Z,19.02
2022-11-29T01:12:25.003Z,18.77
2022-11-29T01:15:28.041Z,17.10
2022-11-29T01:18:31.538Z,14.75
2022-11-29T01:21:35.029Z,18.38
2022-11-29T01:24:39.459Z,18.25
2022-11-29T01:27:42.907Z,17.25
2022-11-29T01:30:46.619Z,17.80
2022-11-29T01:33:49.698Z,17.67
2022-11-29T01:36:52.661Z,17.80
2022-11-29T01:39:57.061Z,18.45
2022-11-29T01:43:00.033Z,15.43
2022-11-29T01:46:03.140Z,18.05
2022-11-29T01:49:10.900Z,17.27
2022-11-29T01:52:18.915Z,18.02
2022-11-29T01:55:23.526Z,18.17
2022-11-29T01:58:26.813Z,17.92
2022-11-29T02:01:29.874Z,20.77
2022-11-29T02:04:33.700Z,16.30
2022-11-29T02:07:36.918Z,16.58
2022-11-29T02:10:59.459Z,17.85
2022-11-29T02:14:16.515Z,17.02
2022-11-29T02:17:26.198Z,15.90
2022-11-29T02:21:00.486Z,20.48
2022-11-29T02:24:37.086Z,16.73
2022-11-29T02:28:13.450Z,17.10
2022-11-29T02:32:03.237Z,17.30
2022-11-29T02:35:24.758Z,19.05
2022-11-29T02:38:46.988Z,19.30
2022-11-29T02:42:17.014Z,16.60
2022-11-29T02:45:39.566Z,20.25
2022-11-29T02:48:57.001Z,17.20
2022-11-29T02:52:04.339Z,18.00
2022-11-29T02:55:14.178Z,16.63
2022-11-29T02:58:25.024Z,16.58
2022-11-29T03:01:33.420Z,16.98
2022-11-29T03:04:46.539Z,17.85
2022-11-29T03:07:58.720Z,18.15
2022-11-29T03:11:10.450Z,16.48
2022-11-29T03:14:24.880Z,16.20
2022-11-29T03:17:41.834Z,15.73
2022-11-29T03:20:59.011Z,17.30
2022-11-29T03:24:10.322Z,17.92
2022-11-29T03:27:15.903Z,16.70
2022-11-29T03:30:21.759Z,15.20
2022-11-29T03:33:34.427Z,17.60
2022-11-29T03:36:44.588Z,16.90
2022-11-29T03:39:53.194Z,17.95
2022-11-29T03:43:01.811Z,17.55
2022-11-29T03:46:09.837Z,16.35
2022-11-29T03:49:22.682Z,17.55
2022-11-29T03:52:33.108Z,17.40
2022-11-29T03:55:51.519Z,16.35
2022-11-29T03:59:03.777Z,15.82
2022-11-29T04:02:36.399Z,15.00
2022-11-29T04:06:17.354Z,17.95
2022-11-29T04:09:35.544Z,16.75
2022-11-29T04:13:15.333Z,17.05
2022-11-29T04:16:50.665Z,17.80
2022-11-29T04:20:42.028Z,18.30
2022-11-29T04:24:04.269Z,15.40
2022-11-29T04:27:30.381Z,15.13
2022-11-29T04:30:44.761Z,15.43
2022-11-29T04:34:20.542Z,19.73
2022-11-29T04:37:50.513Z,15.65
2022-11-29T04:41:10.386Z,16.30
2022-11-29T04:44:31.026Z,18.35
2022-11-29T04:47:53.082Z,16.85
2022-11-29T04:51:04.415Z,14.55
2022-11-29T04:54:16.630Z,15.35
2022-11-29T04:57:36.305Z,16.83
2022-11-29T05:00:46.573Z,15.60
2022-11-29T05:03:58.298Z,16.38
2022-11-29T05:07:07.446Z,15.75
2022-11-29T05:10:25.478Z,15.52
2022-11-29T05:13:38.097Z,15.88
2022-11-29T05:16:48.378Z,13.90
2022-11-29T05:20:05.344Z,17.25
2022-11-29T05:23:27.197Z,16.23
2022-11-29T05:26:34.914Z,15.73
2022-11-29T05:29:44.459Z,15.00
2022-11-29T05:32:57.897Z,16.92
2022-11-29T05:36:15.614Z,16.58
2022-11-29T05:39:51.246Z,16.02
2022-11-29T05:43:16.647Z,14.15
2022-11-29T05:46:27.850Z,15.65
2022-11-29T05:49:39.321Z,15.63
2022-11-29T05:52:51.882Z,15.40
2022-11-29T05:56:04.326Z,15.80
2022-11-29T05:59:10.887Z,14.95
2022-11-29T06:02:29.480Z,15.60
2022-11-29T06:05:40.148Z,14.90
2022-11-29T06:08:52.901Z,14.55
2022-11-29T06:12:02.455Z,16.17
2022-11-29T06:15:30.125Z,15.20
2022-11-29T06:19:07.281Z,16.65
2022-11-29T06:22:21.423Z,16.40
2022-11-29T06:25:38.011Z,16.77
2022-11-29T06:28:51.122Z,16.88
2022-11-29T06:32:03.984Z,15.60
2022-11-29T06:35:12.488Z,16.70
2022-11-29T06:38:22.232Z,15.50
2022-11-29T06:41:27.370Z,15.43
2022-11-29T06:44:30.884Z,16.45
2022-11-29T06:47:42.280Z,17.38
2022-11-29T06:50:54.647Z,14.35
2022-11-29T06:54:05.794Z,16.00
2022-11-29T06:57:21.220Z,15.15
2022-11-29T07:00:27.093Z,14.95
2022-11-29T07:03:42.607Z,14.88
2022-11-29T07:06:46.291Z,14.90
2022-11-29T07:09:52.763Z,14.98
2022-11-29T07:12:57.846Z,26.30
2022-11-29T07:16:12.543Z,17.83
2022-11-29T07:19:25.237Z,18.27
2022-11-29T07:22:47.523Z,18.02
2022-11-29T07:26:03.150Z,20.20
2022-11-29T07:29:25.023Z,18.08
2022-11-29T07:32:39.783Z,16.25
2022-11-29T07:35:50.301Z,21.48
2022-11-29T07:39:04.347Z,17.13
2022-11-29T07:42:17.577Z,20.40
2022-11-29T07:45:26.917Z,16.52
2022-11-29T07:48:29.960Z,17.63
2022-11-29T07:51:33.243Z,17.20
2022-11-29T07:54:36.262Z,16.42
2022-11-29T07:57:39.292Z,18.17
2022-11-29T08:00:44.336Z,16.83
2022-11-29T08:03:47.375Z,14.60
2022-11-29T08:06:50.416Z,13.50
2022-11-29T08:09:53.420Z,19.52
2022-11-29T08:12:56.452Z,17.48
2022-11-29T08:16:00.885Z,18.15
2022-11-29T08:19:04.590Z,16.00
2022-11-29T08:22:07.708Z,18.65
2022-11-29T08:25:12.104Z,16.83
2022-11-29T08:28:15.541Z,19.77
2022-11-29T08:31:21.281Z,19.13
2022-11-29T08:34:25.698Z,17.17
2022-11-29T08:37:28.778Z,15.48
2022-11-29T08:40:31.886Z,18.45
2022-11-29T08:43:35.715Z,18.20
2022-11-29T08:47:03.098Z,15.63
2022-11-29T08:50:12.384Z,16.60
2022-11-29T08:53:32.879Z,17.75
2022-11-29T09:00:00.905Z,21.75
2022-11-29T09:03:23.856Z,17.63
2022-11-29T09:06:28.145Z,16.83
2022-11-29T09:09:31.419Z,18.70
2022-11-29T09:12:34.547Z,16.13
2022-11-29T09:15:38.207Z,16.08
2022-11-29T09:18:48.532Z,18.27
2022-11-29T09:21:54.924Z,16.10
2022-11-29T09:24:57.993Z,17.52
2022-11-29T09:28:03.107Z,16.65
2022-11-29T09:31:07.344Z,17.88
2022-11-29T09:34:13.454Z,16.02
2022-11-29T09:37:16.502Z,15.90
2022-11-29T09:40:22.455Z,16.38
2022-11-29T09:43:30.859Z,17.52
2022-11-29T09:46:44.255Z,16.83
2022-11-29T09:49:59.756Z,21.95
2022-11-29T09:53:18.361Z,18.92
2022-11-29T09:56:29.646Z,18.25
2022-11-29T09:59:38.262Z,21.67
2022-11-29T10:02:47.639Z,19.10
2022-11-29T10:05:57.517Z,20.23
2022-11-29T10:09:05.234Z,21.17
2022-11-29T10:12:16.546Z,25.88
2022-11-29T10:15:23.058Z,25.77
2022-11-29T10:18:33.463Z,26.23
2022-11-29T10:21:42.816Z,22.75
2022-11-29T10:24:50.747Z,26.90
2022-11-29T10:27:54.486Z,24.67
2022-11-29T10:31:01.355Z,25.27
2022-11-29T10:34:14.170Z,27.45
2022-11-29T10:37:20.186Z,21.30
2022-11-29T10:40:31.910Z,19.25
2022-11-29T10:43:37.328Z,21.88
2022-11-29T10:46:40.487Z,19.92
2022-11-29T10:49:43.721Z,23.63
2022-11-29T10:52:48.106Z,19.60
2022-11-29T10:55:56.035Z,19.48
2022-11-29T10:59:03.159Z,26.52
2022-11-29T11:02:18.614Z,18.50
2022-11-29T11:05:26.809Z,22.23
2022-11-29T11:08:32.418Z,20.25
2022-11-29T11:11:35.658Z,17.52
2022-11-29T11:14:40.091Z,22.48
2022-11-29T11:17:56.831Z,17.98
2022-11-29T11:21:02.659Z,17.02
2022-11-29T11:24:22.049Z,16.77
2022-11-29T11:27:33.911Z,19.13
2022-11-29T11:30:36.977Z,22.50
2022-11-29T11:33:41.402Z,19.55
2022-11-29T11:36:44.371Z,19.02
2022-11-29T11:39:50.076Z,18.50
2022-11-29T11:42:53.287Z,20.25
2022-11-29T11:45:56.537Z,25.58
2022-11-29T11:48:59.974Z,25.65
2022-11-29T11:52:06.029Z,20.25
2022-11-29T11:55:28.517Z,18.35
2022-11-29T11:58:33.459Z,17.58
2022-11-29T12:01:39.990Z,19.83
2022-11-29T12:04:43.656Z,19.85
2022-11-29T12:08:07.820Z,33.03
2022-11-29T12:11:17.069Z,18.40
2022-11-29T12:14:30.238Z,22.30
2022-11-29T12:17:37.692Z,16.60
2022-11-29T12:20:45.466Z,18.73
2022-11-29T12:23:54.467Z,18.85
2022-11-29T12:27:04.408Z,20.50
2022-11-29T12:30:13.562Z,24.35
2022-11-29T12:33:28.637Z,19.50
2022-11-29T12:36:39.021Z,16.90
2022-11-29T12:39:50.710Z,13.52
2022-11-29T12:43:04.210Z,16.80
2022-11-29T12:46:12.945Z,16.98
2022-11-29T12:49:25.980Z,16.83
2022-11-29T12:52:38.618Z,18.63
2022-11-29T12:55:55.178Z,17.38
2022-11-29T12:59:13.472Z,15.25
2022-11-29T13:02:27.141Z,17.92
2022-11-29T13:05:51.627Z,15.85
2022-11-29T13:09:04.585Z,14.98
2022-11-29T13:12:18.069Z,20.02
2022-11-29T13:15:26.138Z,14.65
2022-11-29T13:18:36.383Z,15.35
2022-11-29T13:21:46.635Z,19.02
2022-11-29T13:24:52.955Z,17.35
2022-11-29T13:27:59.523Z,15.05
2022-11-29T13:31:08.504Z,15.23
2022-11-29T13:34:16.419Z,16.90
2022-11-29T13:37:27.812Z,18.08
2022-11-29T13:40:38.717Z,18.40
2022-11-29T13:43:46.750Z,16.38
2022-11-29T13:47:00.555Z,16.17
2022-11-29T13:50:07.571Z,14.77
2022-11-29T13:53:16.397Z,14.77
2022-11-29T13:56:33.376Z,13.25
2022-11-29T13:59:45.912Z,15.30
2022-11-29T14:02:52.031Z,14.85
2022-11-29T14:06:05.919Z,18.13
2022-11-29T14:09:25.972Z,14.13
2022-11-29T14:12:37.074Z,16.20
2022-11-29T14:15:40.408Z,16.38
2022-11-29T14:19:07.672Z,14.23
2022-11-29T14:22:28.725Z,18.48
2022-11-29T14:28:56.437Z,14.45
2022-11-29T14:32:00.925Z,15.73
2022-11-29T14:35:18.412Z,13.90
2022-11-29T14:38:31.315Z,15.43
2022-11-29T14:41:52.366Z,31.20
2022-11-29T14:44:58.422Z,16.42
2022-11-29T14:48:02.842Z,18.23
2022-11-29T14:51:12.492Z,14.43
2022-11-29T14:54:19.702Z,16.88
2022-11-29T14:58:08.542Z,17.02
2022-11-29T15:01:11.959Z,19.85
2022-11-29T15:04:15.375Z,17.73
2022-11-29T15:07:32.824Z,20.67
2022-11-29T15:10:40.291Z,18.92
2022-11-29T15:13:54.623Z,16.27
2022-11-29T15:17:20.910Z,19.95
2022-11-29T15:20:40.278Z,16.15
2022-11-29T15:23:45.258Z,15.40
2022-11-29T15:26:58.962Z,16.95
2022-11-29T15:30:19.277Z,16.52
2022-11-29T15:33:24.892Z,16.08
2022-11-29T15:36:28.452Z,14.43
2022-11-29T15:39:35.269Z,18.35
2022-11-29T15:42:43.505Z,16.55
2022-11-29T15:45:50.685Z,15.25
2022-11-29T15:48:54.555Z,16.88
2022-11-29T15:52:00.897Z,16.13
2022-11-29T15:55:11.674Z,18.42
2022-11-29T15:58:15.666Z,23.48
2022-11-29T16:01:22.285Z,25.02
2022-11-29T16:04:27.239Z,21.42
2022-11-29T16:07:34.233Z,19.27
2022-11-29T16:10:47.361Z,19.52
2022-11-29T16:14:28.518Z,19.38
2022-11-29T16:17:33.853Z,20.27
2022-11-29T16:20:36.937Z,19.65
2022-11-29T16:23:41.331Z,19.52
2022-11-29T16:26:47.914Z,17.83
2022-11-29T16:29:52.705Z,18.02
2022-11-29T16:33:00.294Z,18.35
2022-11-29T16:36:08.490Z,17.80
2022-11-29T16:39:22.867Z,16.55
2022-11-29T16:42:29.199Z,21.40
2022-11-29T16:45:34.731Z,17.20
2022-11-29T16:48:38.658Z,18.77
2022-11-29T16:51:48.282Z,17.15
2022-11-29T16:54:52.080Z,18.92
2022-11-29T16:57:56.751Z,17.30
2022-11-29T17:01:00.050Z,23.40
2022-11-29T17:04:03.096Z,20.30
2022-11-29T17:07:08.539Z,22.75
2022-11-29T17:10:16.630Z,23.30
2022-11-29T17:13:21.023Z,21.77
2022-11-29T17:16:25.631Z,20.50
2022-11-29T17:19:30.035Z,17.08
2022-11-29T17:22:32.982Z,22.40
2022-11-29T17:25:36.001Z,22.15
2022-11-29T17:28:41.074Z,18.17
2022-11-29T17:31:44.949Z,18.08
2022-11-29T17:34:48.274Z,27.48
2022-11-29T17:37:51.486Z,28.23
2022-11-29T17:40:54.487Z,33.45
2022-11-29T17:43:59.210Z,27.55
2022-11-29T17:47:02.218Z,31.70
2022-11-29T17:50:06.137Z,22.30
2022-11-29T17:53:09.214Z,22.80
2022-11-29T17:56:14.247Z,27.58
2022-11-29T17:59:18.609Z,22.45
2022-11-29T18:02:21.752Z,32.70
2022-11-29T18:05:26.224Z,30.58
2022-11-29T18:08:30.902Z,27.75
2022-11-29T18:11:44.985Z,24.83
2022-11-29T18:14:51.296Z,21.35
2022-11-29T18:17:54.408Z,26.45
2022-11-29T18:20:59.087Z,29.30
2022-11-29T18:24:03.289Z,22.20
2022-11-29T18:27:06.261Z,22.17
2022-11-29T18:30:11.876Z,20.48
2022-11-29T18:33:14.858Z,22.85
2022-11-29T18:36:19.431Z,22.60
2022-11-29T18:39:24.944Z,26.33
2022-11-29T18:42:27.978Z,22.00
2022-11-29T18:45:35.838Z,22.65
2022-11-29T18:48:39.966Z,24.15
2022-11-29T18:51:45.401Z,22.50
2022-11-29T18:54:48.792Z,20.98
2022-11-29T18:57:53.134Z,25.67
2022-11-29T19:01:04.008Z,23.70
2022-11-29T19:04:06.981Z,26.77
2022-11-29T19:07:10.075Z,26.27
2022-11-29T19:10:13.451Z,22.65
2022-11-29T19:13:16.454Z,24.85
2022-11-29T19:16:22.077Z,24.80
2022-11-29T19:19:25.054Z,29.23
2022-11-29T19:22:29.460Z,28.42
2022-11-29T19:25:35.369Z,29.30
2022-11-29T19:28:39.133Z,27.17
2022-11-29T19:31:44.209Z,28.67
2022-11-29T19:34:47.225Z,28.50
2022-11-29T19:37:50.298Z,25.17
2022-11-29T19:40:53.301Z,21.90
2022-11-29T19:43:58.126Z,27.98
2022-11-29T19:47:02.991Z,21.08
2022-11-29T19:50:07.253Z,24.30
2022-11-29T19:53:10.350Z,24.67
2022-11-29T19:56:14.861Z,27.70
2022-11-29T19:59:18.589Z,26.23
2022-11-29T20:02:23.323Z,24.63
2022-11-29T20:05:27.320Z,26.95
2022-11-29T20:08:30.938Z,24.27
2022-11-29T20:11:33.965Z,24.33
2022-11-29T20:14:36.949Z,23.67
2022-11-29T20:17:41.402Z,28.52
2022-11-29T20:20:44.445Z,22.58
2022-11-29T20:23:47.448Z,25.85
2022-11-29T20:26:51.178Z,26.70
2022-11-29T20:29:54.298Z,25.80
2022-11-29T20:32:58.990Z,24.00
2022-11-29T20:36:13.737Z,26.08
2022-11-29T20:39:29.175Z,23.60
2022-11-29T20:42:57.913Z,22.67
2022-11-29T20:46:01.847Z,24.60
2022-11-29T20:49:07.172Z,21.85
2022-11-29T20:52:15.623Z,24.98
2022-11-29T20:55:19.270Z,22.13
2022-11-29T20:58:22.789Z,34.03
2022-11-29T21:01:25.794Z,23.55
2022-11-29T21:04:30.646Z,30.70
2022-11-29T21:07:33.709Z,24.33
2022-11-29T21:10:37.313Z,23.60
2022-11-29T21:13:42.287Z,22.55
2022-11-29T21:16:45.781Z,25.65
2022-11-29T21:19:50.653Z,21.63
2022-11-29T21:23:02.959Z,24.85
2022-11-29T21:26:11.343Z,25.13
2022-11-29T21:29:17.253Z,21.90
2022-11-29T21:32:23.240Z,23.58
2022-11-29T21:35:27.661Z,26.45
2022-11-29T21:38:30.755Z,24.83
2022-11-29T21:41:34.033Z,28.00
2022-11-29T21:44:37.062Z,20.45
2022-11-29T21:47:40.015Z,28.23
2022-11-29T21:50:44.387Z,20.92
2022-11-29T21:53:47.376Z,26.30
2022-11-29T21:56:50.330Z,22.02
2022-11-29T21:59:53.789Z,23.90
2022-11-29T22:02:57.399Z,23.45
2022-11-29T22:06:04.555Z,23.38
2022-11-29T22:09:08.661Z,23.73
2022-11-29T22:12:32.407Z,22.40
2022-11-29T22:15:34.766Z,25.88
2022-11-29T22:18:38.447Z,22.77
2022-11-29T22:21:44.074Z,22.52
2022-11-29T22:24:47.334Z,22.27
2022-11-29T22:27:51.388Z,22.15
2022-11-29T22:31:02.624Z,20.90
2022-11-29T22:34:05.611Z,26.23
2022-11-29T22:37:10.049Z,24.23
2022-11-29T22:40:13.693Z,24.52
2022-11-29T22:43:16.774Z,25.05
2022-11-29T22:46:21.506Z,23.90
2022-11-29T22:49:24.459Z,23.98
2022-11-29T22:52:29.619Z,23.48
2022-11-29T22:55:32.633Z,22.50
2022-11-29T22:58:36.026Z,30.23
2022-11-29T23:01:40.667Z,23.77
2022-11-29T23:04:44.645Z,23.17
2022-11-29T23:07:49.184Z,23.20
2022-11-29T23:10:56.847Z,23.20
2022-11-29T23:13:59.982Z,29.15
2022-11-29T23:17:02.913Z,30.85
2022-11-29T23:20:07.249Z,30.60
2022-11-29T23:23:11.807Z,34.47
2022-11-29T23:26:19.851Z,31.10
2022-11-29T23:29:23.551Z,29.48
2022-11-29T23:32:26.518Z,31.13
2022-11-29T23:35:29.416Z,31.70
2022-11-29T23:38:34.079Z,31.60
2022-11-29T23:41:37.667Z,28.60
2022-11-29T23:44:40.563Z,31.25
2022-11-29T23:47:43.439Z,31.83
2022-11-29T23:50:47.099Z,28.25
2022-11-29T23:53:54.027Z,27.27
2022-11-29T23:56:56.880Z,30.08
2022-11-29T23:59:59.852Z,31.00
